sensor_id;sensor_type;location;lat;lon;timestamp;pressure;altitude;pressure_sealevel;temperature;humidity
75891;BME280;64571;47.512;19.054;2023-06-22T00:01:45;100624.38;;;23.28;77.99
75891;BME280;64571;47.512;19.054;2023-06-22T00:04:48;100627.75;;;23.33;77.21
75891;BME280;64571;47.512;19.054;2023-06-22T00:07:50;100643.66;;;23.41;76.69
75891;BME280;64571;47.512;19.054;2023-06-22T00:10:53;100650.69;;;23.47;76.85
75891;BME280;64571;47.512;19.054;2023-06-22T00:13:55;100648.59;;;23.44;77.36
75891;BME280;64571;47.512;19.054;2023-06-22T00:16:58;100641.16;;;23.36;77.66
75891;BME280;64571;47.512;19.054;2023-06-22T00:20:01;100640.25;;;23.32;78.51
75891;BME280;64571;47.512;19.054;2023-06-22T00:23:05;100643.00;;;23.25;78.76
75891;BME280;64571;47.512;19.054;2023-06-22T00:26:10;100634.59;;;23.09;78.70
75891;BME280;64571;47.512;19.054;2023-06-22T00:29:14;100657.03;;;23.18;78.93
75891;BME280;64571;47.512;19.054;2023-06-22T00:32:16;100654.91;;;23.11;79.42
75891;BME280;64571;47.512;19.054;2023-06-22T00:35:22;100658.56;;;23.12;80.07
75891;BME280;64571;47.512;19.054;2023-06-22T00:38:24;100655.25;;;23.10;80.00
75891;BME280;64571;47.512;19.054;2023-06-22T00:41:27;100643.41;;;23.04;79.44
75891;BME280;64571;47.512;19.054;2023-06-22T00:44:32;100638.13;;;23.03;78.31
75891;BME280;64571;47.512;19.054;2023-06-22T00:47:35;100626.22;;;22.93;77.76
75891;BME280;64571;47.512;19.054;2023-06-22T00:50:39;100629.06;;;22.93;77.70
75891;BME280;64571;47.512;19.054;2023-06-22T00:53:42;100628.00;;;22.82;77.94
75891;BME280;64571;47.512;19.054;2023-06-22T00:56:45;100636.78;;;22.96;78.03
75891;BME280;64571;47.512;19.054;2023-06-22T00:59:48;100632.78;;;22.97;77.38
75891;BME280;64571;47.512;19.054;2023-06-22T01:02:51;100625.53;;;23.00;76.72
75891;BME280;64571;47.512;19.054;2023-06-22T01:06:06;100629.56;;;22.99;76.19
75891;BME280;64571;47.512;19.054;2023-06-22T01:09:15;100624.94;;;22.91;75.91
75891;BME280;64571;47.512;19.054;2023-06-22T01:12:19;100626.34;;;23.00;76.01
75891;BME280;64571;47.512;19.054;2023-06-22T01:15:33;100636.34;;;22.94;75.97
75891;BME280;64571;47.512;19.054;2023-06-22T01:18:41;100634.34;;;22.95;75.91
75891;BME280;64571;47.512;19.054;2023-06-22T01:21:45;100619.47;;;22.82;76.08
75891;BME280;64571;47.512;19.054;2023-06-22T01:24:57;100617.34;;;22.75;75.34
75891;BME280;64571;47.512;19.054;2023-06-22T01:31:19;100631.56;;;22.98;75.52
75891;BME280;64571;47.512;19.054;2023-06-22T01:34:23;100641.78;;;23.03;74.43
75891;BME280;64571;47.512;19.054;2023-06-22T01:37:28;100624.78;;;23.03;74.64
75891;BME280;64571;47.512;19.054;2023-06-22T01:40:32;100622.25;;;22.98;74.13
75891;BME280;64571;47.512;19.054;2023-06-22T01:43:36;100637.44;;;23.09;73.59
75891;BME280;64571;47.512;19.054;2023-06-22T01:46:39;100636.75;;;23.16;73.60
75891;BME280;64571;47.512;19.054;2023-06-22T01:49:43;100617.16;;;23.07;73.58
75891;BME280;64571;47.512;19.054;2023-06-22T01:52:45;100625.09;;;23.21;73.02
75891;BME280;64571;47.512;19.054;2023-06-22T01:55:48;100638.00;;;23.18;75.54
75891;BME280;64571;47.512;19.054;2023-06-22T01:59:04;100638.22;;;23.06;76.64
75891;BME280;64571;47.512;19.054;2023-06-22T02:02:09;100624.03;;;22.87;77.73
75891;BME280;64571;47.512;19.054;2023-06-22T02:05:16;100630.37;;;22.80;78.49
75891;BME280;64571;47.512;19.054;2023-06-22T02:08:25;100643.66;;;22.76;78.99
75891;BME280;64571;47.512;19.054;2023-06-22T02:11:35;100635.31;;;22.64;79.76
75891;BME280;64571;47.512;19.054;2023-06-22T02:14:38;100633.78;;;22.66;80.12
75891;BME280;64571;47.512;19.054;2023-06-22T02:17:42;100641.81;;;22.64;80.15
75891;BME280;64571;47.512;19.054;2023-06-22T02:20:47;100638.47;;;22.59;80.11
75891;BME280;64571;47.512;19.054;2023-06-22T02:23:50;100651.50;;;22.63;79.63
75891;BME280;64571;47.512;19.054;2023-06-22T02:26:52;100657.19;;;22.63;80.55
75891;BME280;64571;47.512;19.054;2023-06-22T02:29:55;100658.00;;;22.64;80.71
75891;BME280;64571;47.512;19.054;2023-06-22T02:32:58;100660.47;;;22.65;81.32
75891;BME280;64571;47.512;19.054;2023-06-22T02:36:03;100662.47;;;22.65;81.70
75891;BME280;64571;47.512;19.054;2023-06-22T02:39:07;100662.41;;;22.61;81.87
75891;BME280;64571;47.512;19.054;2023-06-22T02:42:11;100662.41;;;22.61;81.96
75891;BME280;64571;47.512;19.054;2023-06-22T02:45:14;100647.56;;;22.48;81.52
75891;BME280;64571;47.512;19.054;2023-06-22T02:48:17;100667.53;;;22.56;81.50
75891;BME280;64571;47.512;19.054;2023-06-22T02:51:20;100652.25;;;22.41;81.62
75891;BME280;64571;47.512;19.054;2023-06-22T02:54:23;100661.44;;;22.34;81.82
75891;BME280;64571;47.512;19.054;2023-06-22T02:57:25;100673.38;;;22.43;82.00
75891;BME280;64571;47.512;19.054;2023-06-22T03:00:28;100668.00;;;22.38;81.75
75891;BME280;64571;47.512;19.054;2023-06-22T03:03:33;100670.06;;;22.41;81.43
75891;BME280;64571;47.512;19.054;2023-06-22T03:06:36;100670.66;;;22.31;80.91
75891;BME280;64571;47.512;19.054;2023-06-22T03:09:39;100673.12;;;22.33;80.81
75891;BME280;64571;47.512;19.054;2023-06-22T03:12:42;100678.34;;;22.31;80.00
75891;BME280;64571;47.512;19.054;2023-06-22T03:15:45;100669.62;;;22.39;79.55
75891;BME280;64571;47.512;19.054;2023-06-22T03:18:48;100660.31;;;22.39;78.52
75891;BME280;64571;47.512;19.054;2023-06-22T03:21:50;100664.88;;;22.43;78.46
75891;BME280;64571;47.512;19.054;2023-06-22T03:24:53;100657.09;;;22.40;78.09
75891;BME280;64571;47.512;19.054;2023-06-22T03:27:57;100666.59;;;22.48;78.56
75891;BME280;64571;47.512;19.054;2023-06-22T03:30:59;100658.66;;;22.38;79.32
75891;BME280;64571;47.512;19.054;2023-06-22T03:34:04;100670.38;;;22.36;78.67
75891;BME280;64571;47.512;19.054;2023-06-22T03:37:07;100650.69;;;22.24;78.87
75891;BME280;64571;47.512;19.054;2023-06-22T03:40:10;100668.28;;;22.33;78.98
75891;BME280;64571;47.512;19.054;2023-06-22T03:43:12;100665.75;;;22.28;79.27
75891;BME280;64571;47.512;19.054;2023-06-22T03:46:15;100659.34;;;22.31;79.21
75891;BME280;64571;47.512;19.054;2023-06-22T03:49:17;100656.59;;;22.35;79.05
75891;BME280;64571;47.512;19.054;2023-06-22T03:52:21;100669.84;;;22.50;78.75
75891;BME280;64571;47.512;19.054;2023-06-22T03:55:24;100675.16;;;22.52;78.13
75891;BME280;64571;47.512;19.054;2023-06-22T03:58:27;100683.81;;;22.59;78.13
75891;BME280;64571;47.512;19.054;2023-06-22T04:01:35;100678.81;;;22.52;77.88
75891;BME280;64571;47.512;19.054;2023-06-22T04:04:39;100675.44;;;22.46;78.37
75891;BME280;64571;47.512;19.054;2023-06-22T04:07:42;100681.66;;;22.52;78.38
75891;BME280;64571;47.512;19.054;2023-06-22T04:10:45;100686.41;;;22.48;78.52
75891;BME280;64571;47.512;19.054;2023-06-22T04:13:47;100689.75;;;22.34;79.75
75891;BME280;64571;47.512;19.054;2023-06-22T04:16:51;100676.63;;;22.26;79.88
75891;BME280;64571;47.512;19.054;2023-06-22T04:19:53;100682.00;;;22.31;79.89
75891;BME280;64571;47.512;19.054;2023-06-22T04:22:56;100686.03;;;22.30;79.81
75891;BME280;64571;47.512;19.054;2023-06-22T04:25:59;100673.72;;;22.22;79.86
75891;BME280;64571;47.512;19.054;2023-06-22T04:29:04;100674.19;;;22.24;79.76
75891;BME280;64571;47.512;19.054;2023-06-22T04:32:10;100692.44;;;22.46;79.13
75891;BME280;64571;47.512;19.054;2023-06-22T04:35:15;100680.50;;;22.37;79.37
75891;BME280;64571;47.512;19.054;2023-06-22T04:38:20;100701.53;;;22.56;79.46
75891;BME280;64571;47.512;19.054;2023-06-22T04:41:24;100697.53;;;22.57;79.69
75891;BME280;64571;47.512;19.054;2023-06-22T04:44:26;100694.41;;;22.62;79.94
75891;BME280;64571;47.512;19.054;2023-06-22T04:47:29;100698.47;;;22.64;80.12
75891;BME280;64571;47.512;19.054;2023-06-22T04:50:32;100700.66;;;22.71;80.04
75891;BME280;64571;47.512;19.054;2023-06-22T04:53:34;100692.97;;;22.71;79.98
75891;BME280;64571;47.512;19.054;2023-06-22T04:56:37;100706.19;;;22.83;80.18
75891;BME280;64571;47.512;19.054;2023-06-22T04:59:43;100698.13;;;22.85;79.79
75891;BME280;64571;47.512;19.054;2023-06-22T05:02:46;100710.00;;;22.91;79.00
75891;BME280;64571;47.512;19.054;2023-06-22T05:05:49;100705.72;;;23.00;77.90
75891;BME280;64571;47.512;19.054;2023-06-22T05:08:56;100713.25;;;23.12;76.43
75891;BME280;64571;47.512;19.054;2023-06-22T05:12:00;100695.59;;;22.99;76.56
75891;BME280;64571;47.512;19.054;2023-06-22T05:15:06;100717.09;;;23.23;75.67
75891;BME280;64571;47.512;19.054;2023-06-22T05:18:09;100717.12;;;23.46;74.79
75891;BME280;64571;47.512;19.054;2023-06-22T05:21:14;100715.56;;;23.72;74.46
75891;BME280;64571;47.512;19.054;2023-06-22T05:24:16;100727.69;;;23.95;73.35
75891;BME280;64571;47.512;19.054;2023-06-22T05:27:19;100723.31;;;24.24;72.29
75891;BME280;64571;47.512;19.054;2023-06-22T05:30:22;100733.34;;;24.45;70.79
75891;BME280;64571;47.512;19.054;2023-06-22T05:33:24;100739.00;;;24.41;70.21
75891;BME280;64571;47.512;19.054;2023-06-22T05:36:27;100720.50;;;24.55;69.05
75891;BME280;64571;47.512;19.054;2023-06-22T05:39:29;100735.16;;;24.87;67.98
75891;BME280;64571;47.512;19.054;2023-06-22T05:42:32;100738.50;;;25.30;66.12
75891;BME280;64571;47.512;19.054;2023-06-22T05:45:35;100746.94;;;25.60;64.59
75891;BME280;64571;47.512;19.054;2023-06-22T05:48:38;100744.78;;;25.87;62.04
75891;BME280;64571;47.512;19.054;2023-06-22T05:51:41;100746.03;;;26.44;61.96
75891;BME280;64571;47.512;19.054;2023-06-22T05:54:44;100745.66;;;26.57;61.09
75891;BME280;64571;47.512;19.054;2023-06-22T05:57:46;100748.63;;;26.78;60.41
75891;BME280;64571;47.512;19.054;2023-06-22T06:00:50;100745.34;;;26.69;60.61
75891;BME280;64571;47.512;19.054;2023-06-22T06:03:52;100751.44;;;26.67;60.09
75891;BME280;64571;47.512;19.054;2023-06-22T06:06:55;100739.38;;;27.02;59.11
75891;BME280;64571;47.512;19.054;2023-06-22T06:09:57;100732.53;;;27.29;57.20
75891;BME280;64571;47.512;19.054;2023-06-22T06:13:00;100748.03;;;27.31;57.18
75891;BME280;64571;47.512;19.054;2023-06-22T06:16:04;100743.97;;;27.46;56.36
75891;BME280;64571;47.512;19.054;2023-06-22T06:19:07;100741.22;;;27.89;54.63
75891;BME280;64571;47.512;19.054;2023-06-22T06:22:09;100749.31;;;27.48;53.84
75891;BME280;64571;47.512;19.054;2023-06-22T06:25:12;100737.12;;;27.72;53.62
75891;BME280;64571;47.512;19.054;2023-06-22T06:28:18;100742.81;;;27.87;53.04
75891;BME280;64571;47.512;19.054;2023-06-22T06:31:21;100741.59;;;27.95;51.81
75891;BME280;64571;47.512;19.054;2023-06-22T06:34:23;100742.37;;;27.63;50.71
75891;BME280;64571;47.512;19.054;2023-06-22T06:37:26;100735.06;;;28.09;50.48
75891;BME280;64571;47.512;19.054;2023-06-22T06:40:29;100736.28;;;27.83;50.03
75891;BME280;64571;47.512;19.054;2023-06-22T06:43:32;100742.81;;;28.12;50.63
75891;BME280;64571;47.512;19.054;2023-06-22T06:46:35;100726.09;;;28.07;49.47
75891;BME280;64571;47.512;19.054;2023-06-22T06:49:38;100744.75;;;28.75;48.42
75891;BME280;64571;47.512;19.054;2023-06-22T06:52:40;100726.81;;;28.64;47.31
75891;BME280;64571;47.512;19.054;2023-06-22T06:55:43;100741.59;;;28.23;48.91
75891;BME280;64571;47.512;19.054;2023-06-22T06:58:50;100737.41;;;28.74;48.20
75891;BME280;64571;47.512;19.054;2023-06-22T07:01:53;100735.47;;;28.29;47.16
75891;BME280;64571;47.512;19.054;2023-06-22T07:04:56;100734.97;;;28.62;46.33
75891;BME280;64571;47.512;19.054;2023-06-22T07:08:01;100734.31;;;29.28;45.95
75891;BME280;64571;47.512;19.054;2023-06-22T07:11:04;100730.03;;;30.06;43.47
75891;BME280;64571;47.512;19.054;2023-06-22T07:14:06;100706.75;;;30.00;42.77
75891;BME280;64571;47.512;19.054;2023-06-22T07:17:09;100722.19;;;30.17;43.35
75891;BME280;64571;47.512;19.054;2023-06-22T07:20:12;100723.78;;;30.22;42.65
75891;BME280;64571;47.512;19.054;2023-06-22T07:23:16;100707.41;;;30.19;43.22
75891;BME280;64571;47.512;19.054;2023-06-22T07:26:19;100723.50;;;30.47;42.96
75891;BME280;64571;47.512;19.054;2023-06-22T07:29:22;100708.37;;;30.43;43.38
75891;BME280;64571;47.512;19.054;2023-06-22T07:32:24;100712.94;;;29.95;43.87
75891;BME280;64571;47.512;19.054;2023-06-22T07:35:27;100719.56;;;29.85;44.76
75891;BME280;64571;47.512;19.054;2023-06-22T07:38:30;100726.03;;;30.75;42.76
75891;BME280;64571;47.512;19.054;2023-06-22T07:41:33;100721.53;;;31.09;41.34
75891;BME280;64571;47.512;19.054;2023-06-22T07:44:35;100723.69;;;30.67;40.56
75891;BME280;64571;47.512;19.054;2023-06-22T07:47:38;100705.63;;;31.85;38.37
75891;BME280;64571;47.512;19.054;2023-06-22T07:50:41;100721.16;;;32.98;36.64
75891;BME280;64571;47.512;19.054;2023-06-22T07:53:44;100717.56;;;32.07;38.79
75891;BME280;64571;47.512;19.054;2023-06-22T07:56:46;100716.41;;;32.88;37.41
75891;BME280;64571;47.512;19.054;2023-06-22T07:59:49;100717.06;;;33.15;37.00
75891;BME280;64571;47.512;19.054;2023-06-22T08:02:52;100712.06;;;32.36;36.89
75891;BME280;64571;47.512;19.054;2023-06-22T08:05:55;100702.66;;;32.56;37.05
75891;BME280;64571;47.512;19.054;2023-06-22T08:08:57;100694.53;;;32.07;38.10
75891;BME280;64571;47.512;19.054;2023-06-22T08:12:01;100694.28;;;32.21;37.88
75891;BME280;64571;47.512;19.054;2023-06-22T08:15:04;100698.84;;;31.95;37.15
75891;BME280;64571;47.512;19.054;2023-06-22T08:18:07;100695.72;;;31.86;38.25
75891;BME280;64571;47.512;19.054;2023-06-22T08:21:10;100705.66;;;31.31;40.41
75891;BME280;64571;47.512;19.054;2023-06-22T08:24:14;100690.16;;;31.21;40.15
75891;BME280;64571;47.512;19.054;2023-06-22T08:27:16;100700.88;;;31.48;40.01
75891;BME280;64571;47.512;19.054;2023-06-22T08:30:21;100694.56;;;31.57;39.97
75891;BME280;64571;47.512;19.054;2023-06-22T08:33:23;100710.38;;;31.68;40.10
75891;BME280;64571;47.512;19.054;2023-06-22T08:36:31;100684.94;;;31.43;40.57
75891;BME280;64571;47.512;19.054;2023-06-22T08:39:37;100695.44;;;30.96;41.45
75891;BME280;64571;47.512;19.054;2023-06-22T08:42:40;100686.94;;;31.16;41.20
75891;BME280;64571;47.512;19.054;2023-06-22T08:45:44;100688.59;;;31.17;41.21
75891;BME280;64571;47.512;19.054;2023-06-22T08:48:47;100689.66;;;31.30;42.68
75891;BME280;64571;47.512;19.054;2023-06-22T08:51:49;100675.16;;;30.80;43.03
75891;BME280;64571;47.512;19.054;2023-06-22T08:54:54;100693.09;;;30.87;42.54
75891;BME280;64571;47.512;19.054;2023-06-22T08:57:57;100664.88;;;30.82;42.96
75891;BME280;64571;47.512;19.054;2023-06-22T09:01:00;100663.97;;;31.16;42.25
75891;BME280;64571;47.512;19.054;2023-06-22T09:04:03;100668.34;;;31.24;42.81
75891;BME280;64571;47.512;19.054;2023-06-22T09:07:08;100656.41;;;31.29;42.14
75891;BME280;64571;47.512;19.054;2023-06-22T09:10:10;100671.16;;;31.31;43.03
75891;BME280;64571;47.512;19.054;2023-06-22T09:13:13;100664.25;;;31.52;41.69
75891;BME280;64571;47.512;19.054;2023-06-22T09:16:18;100650.66;;;31.29;41.75
75891;BME280;64571;47.512;19.054;2023-06-22T09:19:21;100655.94;;;31.34;42.58
75891;BME280;64571;47.512;19.054;2023-06-22T09:22:23;100651.25;;;31.17;42.64
75891;BME280;64571;47.512;19.054;2023-06-22T09:25:31;100638.56;;;31.14;42.89
75891;BME280;64571;47.512;19.054;2023-06-22T09:28:34;100657.72;;;30.63;44.06
75891;BME280;64571;47.512;19.054;2023-06-22T09:31:37;100655.66;;;30.64;44.19
75891;BME280;64571;47.512;19.054;2023-06-22T09:34:39;100642.47;;;31.00;44.59
75891;BME280;64571;47.512;19.054;2023-06-22T09:37:42;100631.34;;;31.02;43.13
75891;BME280;64571;47.512;19.054;2023-06-22T09:40:44;100637.66;;;31.21;43.55
75891;BME280;64571;47.512;19.054;2023-06-22T09:43:47;100647.59;;;31.43;43.43
75891;BME280;64571;47.512;19.054;2023-06-22T09:46:50;100646.94;;;31.56;42.81
75891;BME280;64571;47.512;19.054;2023-06-22T09:49:53;100630.00;;;31.38;42.43
75891;BME280;64571;47.512;19.054;2023-06-22T09:52:57;100648.69;;;31.49;42.84
75891;BME280;64571;47.512;19.054;2023-06-22T09:56:03;100646.63;;;31.50;43.30
75891;BME280;64571;47.512;19.054;2023-06-22T09:59:06;100640.56;;;30.90;44.11
75891;BME280;64571;47.512;19.054;2023-06-22T10:02:19;100643.72;;;31.54;43.11
75891;BME280;64571;47.512;19.054;2023-06-22T10:05:23;100643.34;;;31.98;42.56
75891;BME280;64571;47.512;19.054;2023-06-22T10:08:25;100627.50;;;32.30;41.63
75891;BME280;64571;47.512;19.054;2023-06-22T10:11:28;100631.09;;;31.71;42.72
75891;BME280;64571;47.512;19.054;2023-06-22T10:14:33;100639.63;;;31.74;42.46
75891;BME280;64571;47.512;19.054;2023-06-22T10:17:35;100635.81;;;32.05;41.57
75891;BME280;64571;47.512;19.054;2023-06-22T10:20:38;100639.63;;;32.41;41.44
75891;BME280;64571;47.512;19.054;2023-06-22T10:23:40;100644.88;;;32.46;42.37
75891;BME280;64571;47.512;19.054;2023-06-22T10:26:43;100630.69;;;32.56;40.58
75891;BME280;64571;47.512;19.054;2023-06-22T10:29:46;100624.06;;;32.39;41.46
75891;BME280;64571;47.512;19.054;2023-06-22T10:32:48;100616.00;;;32.30;41.36
75891;BME280;64571;47.512;19.054;2023-06-22T10:35:51;100616.53;;;32.65;41.04
75891;BME280;64571;47.512;19.054;2023-06-22T10:38:53;100614.13;;;32.80;40.82
75891;BME280;64571;47.512;19.054;2023-06-22T10:41:58;100632.50;;;33.06;40.81
75891;BME280;64571;47.512;19.054;2023-06-22T10:45:00;100626.94;;;32.59;41.42
75891;BME280;64571;47.512;19.054;2023-06-22T10:48:03;100618.16;;;32.46;41.10
75891;BME280;64571;47.512;19.054;2023-06-22T10:51:06;100609.78;;;33.08;40.48
75891;BME280;64571;47.512;19.054;2023-06-22T10:54:08;100602.81;;;33.58;39.54
75891;BME280;64571;47.512;19.054;2023-06-22T10:57:11;100613.87;;;33.43;39.34
75891;BME280;64571;47.512;19.054;2023-06-22T11:00:15;100597.41;;;33.43;38.83
75891;BME280;64571;47.512;19.054;2023-06-22T11:03:18;100610.63;;;33.41;38.45
75891;BME280;64571;47.512;19.054;2023-06-22T11:06:21;100611.28;;;33.65;38.46
75891;BME280;64571;47.512;19.054;2023-06-22T11:09:23;100597.94;;;33.38;38.40
75891;BME280;64571;47.512;19.054;2023-06-22T11:12:31;100621.44;;;33.20;39.18
75891;BME280;64571;47.512;19.054;2023-06-22T11:15:33;100607.53;;;32.99;39.90
75891;BME280;64571;47.512;19.054;2023-06-22T11:18:37;100603.31;;;33.04;39.53
75891;BME280;64571;47.512;19.054;2023-06-22T11:21:39;100579.19;;;33.30;38.94
75891;BME280;64571;47.512;19.054;2023-06-22T11:24:42;100603.22;;;33.40;38.57
75891;BME280;64571;47.512;19.054;2023-06-22T11:27:45;100598.25;;;33.89;38.04
75891;BME280;64571;47.512;19.054;2023-06-22T11:30:47;100571.41;;;33.76;37.70
75891;BME280;64571;47.512;19.054;2023-06-22T11:33:50;100566.34;;;33.80;37.47
75891;BME280;64571;47.512;19.054;2023-06-22T11:36:53;100584.47;;;33.81;37.46
75891;BME280;64571;47.512;19.054;2023-06-22T11:39:55;100578.84;;;34.06;36.48
75891;BME280;64571;47.512;19.054;2023-06-22T11:43:08;100586.78;;;34.02;36.57
75891;BME280;64571;47.512;19.054;2023-06-22T11:46:10;100573.88;;;34.07;36.56
75891;BME280;64571;47.512;19.054;2023-06-22T11:49:13;100585.87;;;33.43;37.83
75891;BME280;64571;47.512;19.054;2023-06-22T11:52:16;100579.16;;;33.95;37.15
75891;BME280;64571;47.512;19.054;2023-06-22T11:55:20;100573.25;;;34.28;36.64
75891;BME280;64571;47.512;19.054;2023-06-22T11:58:22;100571.81;;;34.49;36.14
75891;BME280;64571;47.512;19.054;2023-06-22T12:01:25;100568.28;;;34.29;36.17
75891;BME280;64571;47.512;19.054;2023-06-22T12:04:28;100563.91;;;34.24;36.06
75891;BME280;64571;47.512;19.054;2023-06-22T12:07:30;100570.22;;;34.61;36.03
75891;BME280;64571;47.512;19.054;2023-06-22T12:10:33;100567.06;;;34.42;35.64
75891;BME280;64571;47.512;19.054;2023-06-22T12:13:36;100560.75;;;33.89;36.55
75891;BME280;64571;47.512;19.054;2023-06-22T12:16:39;100553.62;;;34.23;35.96
75891;BME280;64571;47.512;19.054;2023-06-22T12:19:41;100553.56;;;34.52;35.68
75891;BME280;64571;47.512;19.054;2023-06-22T12:22:44;100555.00;;;34.73;35.92
75891;BME280;64571;47.512;19.054;2023-06-22T12:25:47;100533.16;;;34.59;35.94
75891;BME280;64571;47.512;19.054;2023-06-22T12:28:49;100537.66;;;34.73;35.18
75891;BME280;64571;47.512;19.054;2023-06-22T12:31:52;100541.94;;;34.81;35.11
75891;BME280;64571;47.512;19.054;2023-06-22T12:34:55;100523.56;;;35.00;34.50
75891;BME280;64571;47.512;19.054;2023-06-22T12:37:58;100536.72;;;35.27;34.70
75891;BME280;64571;47.512;19.054;2023-06-22T12:41:01;100526.44;;;35.26;34.26
75891;BME280;64571;47.512;19.054;2023-06-22T12:44:03;100528.66;;;35.57;33.65
75891;BME280;64571;47.512;19.054;2023-06-22T12:47:06;100519.06;;;34.99;34.13
75891;BME280;64571;47.512;19.054;2023-06-22T12:50:09;100537.16;;;35.25;33.92
75891;BME280;64571;47.512;19.054;2023-06-22T12:53:12;100526.78;;;34.51;34.80
75891;BME280;64571;47.512;19.054;2023-06-22T12:56:15;100513.16;;;35.03;34.16
75891;BME280;64571;47.512;19.054;2023-06-22T12:59:17;100528.50;;;35.73;33.90
75891;BME280;64571;47.512;19.054;2023-06-22T13:02:20;100528.31;;;36.11;32.47
75891;BME280;64571;47.512;19.054;2023-06-22T13:05:23;100524.00;;;35.94;33.58
75891;BME280;64571;47.512;19.054;2023-06-22T13:08:25;100511.91;;;36.08;33.25
75891;BME280;64571;47.512;19.054;2023-06-22T13:11:48;100517.88;;;35.92;33.52
75891;BME280;64571;47.512;19.054;2023-06-22T13:14:50;100506.34;;;35.79;33.52
75891;BME280;64571;47.512;19.054;2023-06-22T13:17:53;100496.28;;;36.06;33.26
75891;BME280;64571;47.512;19.054;2023-06-22T13:20:56;100498.06;;;36.65;32.05
75891;BME280;64571;47.512;19.054;2023-06-22T13:24:00;100497.81;;;36.19;32.97
75891;BME280;64571;47.512;19.054;2023-06-22T13:27:03;100490.38;;;36.71;32.68
75891;BME280;64571;47.512;19.054;2023-06-22T13:30:07;100490.50;;;36.59;32.01
75891;BME280;64571;47.512;19.054;2023-06-22T13:33:10;100491.00;;;36.35;31.76
75891;BME280;64571;47.512;19.054;2023-06-22T13:36:13;100491.84;;;36.14;32.23
75891;BME280;64571;47.512;19.054;2023-06-22T13:39:15;100487.63;;;35.71;33.22
75891;BME280;64571;47.512;19.054;2023-06-22T13:42:18;100468.78;;;35.44;33.12
75891;BME280;64571;47.512;19.054;2023-06-22T13:45:20;100482.34;;;35.91;32.97
75891;BME280;64571;47.512;19.054;2023-06-22T13:48:23;100477.81;;;35.46;33.39
75891;BME280;64571;47.512;19.054;2023-06-22T13:51:28;100481.50;;;36.04;32.62
75891;BME280;64571;47.512;19.054;2023-06-22T13:54:30;100466.38;;;35.87;33.35
75891;BME280;64571;47.512;19.054;2023-06-22T13:57:36;100470.91;;;36.41;32.52
75891;BME280;64571;47.512;19.054;2023-06-22T14:00:39;100466.22;;;36.34;32.80
75891;BME280;64571;47.512;19.054;2023-06-22T14:03:42;100469.22;;;35.56;33.55
75891;BME280;64571;47.512;19.054;2023-06-22T14:06:47;100469.94;;;35.47;34.12
75891;BME280;64571;47.512;19.054;2023-06-22T14:09:50;100461.81;;;35.55;34.06
75891;BME280;64571;47.512;19.054;2023-06-22T14:12:52;100466.00;;;35.97;33.30
75891;BME280;64571;47.512;19.054;2023-06-22T14:15:57;100458.19;;;35.63;33.24
75891;BME280;64571;47.512;19.054;2023-06-22T14:19:00;100447.37;;;35.98;32.89
75891;BME280;64571;47.512;19.054;2023-06-22T14:22:03;100452.88;;;36.06;32.68
75891;BME280;64571;47.512;19.054;2023-06-22T14:25:06;100449.91;;;35.74;33.04
75891;BME280;64571;47.512;19.054;2023-06-22T14:28:09;100442.62;;;35.70;34.26
75891;BME280;64571;47.512;19.054;2023-06-22T14:31:11;100439.53;;;35.86;33.81
75891;BME280;64571;47.512;19.054;2023-06-22T14:34:15;100432.16;;;35.85;33.61
75891;BME280;64571;47.512;19.054;2023-06-22T14:37:17;100429.38;;;35.60;33.62
75891;BME280;64571;47.512;19.054;2023-06-22T14:40:20;100429.47;;;35.34;33.52
75891;BME280;64571;47.512;19.054;2023-06-22T14:43:26;100426.31;;;35.41;33.33
75891;BME280;64571;47.512;19.054;2023-06-22T14:46:29;100427.50;;;35.66;33.31
75891;BME280;64571;47.512;19.054;2023-06-22T14:49:32;100409.91;;;35.38;33.01
75891;BME280;64571;47.512;19.054;2023-06-22T14:52:35;100424.38;;;35.38;33.41
75891;BME280;64571;47.512;19.054;2023-06-22T14:55:37;100424.84;;;35.02;33.77
75891;BME280;64571;47.512;19.054;2023-06-22T14:58:41;100414.47;;;34.79;34.15
75891;BME280;64571;47.512;19.054;2023-06-22T15:01:47;100409.25;;;34.87;34.31
75891;BME280;64571;47.512;19.054;2023-06-22T15:04:50;100417.59;;;34.72;34.77
75891;BME280;64571;47.512;19.054;2023-06-22T15:07:55;100409.19;;;34.52;35.06
75891;BME280;64571;47.512;19.054;2023-06-22T15:11:00;100408.78;;;34.88;34.45
75891;BME280;64571;47.512;19.054;2023-06-22T15:14:04;100387.28;;;34.89;34.68
75891;BME280;64571;47.512;19.054;2023-06-22T15:17:07;100401.59;;;35.06;34.61
75891;BME280;64571;47.512;19.054;2023-06-22T15:20:16;100392.97;;;34.80;34.74
75891;BME280;64571;47.512;19.054;2023-06-22T15:23:18;100390.53;;;34.91;34.97
75891;BME280;64571;47.512;19.054;2023-06-22T15:26:21;100389.16;;;34.83;35.46
75891;BME280;64571;47.512;19.054;2023-06-22T15:29:24;100379.37;;;34.42;35.63
75891;BME280;64571;47.512;19.054;2023-06-22T15:32:26;100401.12;;;34.47;35.78
75891;BME280;64571;47.512;19.054;2023-06-22T15:35:31;100398.00;;;34.41;35.98
75891;BME280;64571;47.512;19.054;2023-06-22T15:38:33;100381.47;;;34.42;35.81
75891;BME280;64571;47.512;19.054;2023-06-22T15:41:39;100392.22;;;34.16;36.15
75891;BME280;64571;47.512;19.054;2023-06-22T15:44:43;100390.72;;;34.37;36.53
75891;BME280;64571;47.512;19.054;2023-06-22T15:47:45;100390.03;;;34.33;36.68
75891;BME280;64571;47.512;19.054;2023-06-22T15:50:48;100401.22;;;34.43;36.40